createdAt,value
2019-05-10T00:01:12.947Z,94.66
2019-05-10T00:04:01.492Z,94.45
2019-05-10T00:06:50.479Z,94.26
2019-05-10T00:09:20.575Z,94.54
2019-05-10T00:12:02.749Z,94.77
2019-05-10T00:14:46.318Z,94.81
2019-05-10T00:17:21.295Z,95.34
2019-05-10T00:19:52.734Z,95.60
2019-05-10T00:22:23.946Z,96.06
2019-05-10T00:25:04.004Z,96.25
2019-05-10T00:27:27.937Z,95.88
2019-05-10T00:29:59.116Z,96.11
2019-05-10T00:32:30.234Z,96.37
2019-05-10T00:35:01.500Z,96.57
2019-05-10T00:37:32.649Z,96.52
2019-05-10T00:40:04.389Z,96.82
2019-05-10T00:42:35.506Z,97.18
2019-05-10T00:45:08.003Z,97.13
2019-05-10T00:47:39.204Z,97.25
2019-05-10T00:50:10.795Z,97.32
2019-05-10T00:52:41.918Z,97.15
2019-05-10T00:55:18.789Z,96.96
2019-05-10T00:57:48.264Z,96.81
2019-05-10T01:00:20.389Z,96.49
2019-05-10T01:02:51.722Z,96.21
2019-05-10T01:05:23.212Z,95.82
2019-05-10T01:07:54.496Z,95.19
2019-05-10T01:10:26.067Z,95.26
2019-05-10T01:12:57.467Z,95.18
2019-05-10T01:15:28.761Z,95.04
2019-05-10T01:17:59.842Z,95.05
2019-05-10T01:20:31.035Z,94.86
2019-05-10T01:23:02.545Z,94.81
2019-05-10T01:25:35.811Z,94.71
2019-05-10T01:28:07.124Z,94.63
2019-05-10T01:30:38.653Z,94.43
2019-05-10T01:33:09.821Z,94.44
2019-05-10T01:35:41.279Z,94.34
2019-05-10T01:38:13.628Z,94.34
2019-05-10T01:40:44.896Z,94.16
2019-05-10T01:43:16.113Z,94.31
2019-05-10T01:45:47.324Z,94.50
2019-05-10T01:48:18.521Z,94.51
2019-05-10T01:50:49.654Z,94.37
2019-05-10T01:53:20.805Z,94.14
2019-05-10T01:55:52.916Z,94.54
2019-05-10T01:58:25.265Z,94.97
2019-05-10T02:00:56.891Z,95.10
2019-05-10T02:03:28.147Z,95.12
2019-05-10T02:05:59.461Z,94.89
2019-05-10T02:08:30.752Z,94.70
2019-05-10T02:11:02.282Z,94.71
2019-05-10T02:13:33.817Z,94.68
2019-05-10T02:16:05.214Z,94.22
2019-05-10T02:18:36.654Z,94.04
2019-05-10T02:21:08.092Z,94.18
2019-05-10T02:23:39.417Z,93.86
2019-05-10T02:26:11.789Z,93.65
2019-05-10T02:28:43.048Z,94.18
2019-05-10T02:31:14.471Z,94.40
2019-05-10T02:33:45.881Z,93.98
2019-05-10T02:36:17.272Z,94.15
2019-05-10T02:38:48.616Z,94.50
2019-05-10T02:41:20.244Z,94.33
2019-05-10T02:43:51.306Z,94.02
2019-05-10T02:46:22.865Z,93.79
2019-05-10T02:48:54.349Z,93.79
2019-05-10T02:51:25.986Z,94.64
2019-05-10T02:53:57.459Z,95.28
2019-05-10T02:56:31.845Z,95.34
2019-05-10T02:59:04.144Z,95.31
2019-05-10T03:01:37.421Z,95.29
2019-05-10T03:04:10.520Z,95.52
2019-05-10T03:06:44.258Z,95.80
2019-05-10T03:09:15.778Z,96.07
2019-05-10T03:11:49.372Z,96.30
2019-05-10T03:14:20.861Z,96.41
2019-05-10T03:16:53.039Z,96.22
2019-05-10T03:19:24.290Z,95.98
2019-05-10T03:22:06.798Z,95.60
2019-05-10T03:24:38.012Z,95.25
2019-05-10T03:27:09.194Z,95.47
2019-05-10T03:29:40.696Z,95.57
2019-05-10T03:32:11.993Z,95.64
2019-05-10T03:34:43.219Z,95.68
2019-05-10T03:37:14.727Z,95.40
2019-05-10T03:39:46.226Z,95.19
2019-05-10T03:42:17.846Z,95.07
2019-05-10T03:44:49.275Z,94.86
2019-05-10T03:47:20.834Z,94.64
2019-05-10T03:49:52.151Z,94.49
2019-05-10T03:52:23.317Z,94.28
2019-05-10T03:54:54.465Z,94.11
2019-05-10T03:57:25.641Z,94.05
2019-05-10T03:59:56.769Z,94.09
2019-05-10T04:02:28.427Z,93.71
2019-05-10T04:04:59.969Z,93.53
2019-05-10T04:07:31.408Z,93.50
2019-05-10T04:10:02.677Z,93.14
2019-05-10T04:12:34.023Z,92.89
2019-05-10T04:15:06.140Z,93.24
2019-05-10T04:17:37.297Z,93.25
2019-05-10T04:20:09.263Z,92.98
2019-05-10T04:22:40.476Z,92.63
2019-05-10T04:25:11.476Z,92.29
2019-05-10T04:27:42.267Z,91.16
2019-05-10T04:30:13.740Z,89.50
2019-05-10T04:32:44.510Z,89.99
2019-05-10T04:35:15.837Z,90.83
2019-05-10T04:37:47.006Z,92.06
2019-05-10T04:40:18.565Z,92.77
2019-05-10T04:42:50.788Z,93.16
2019-05-10T04:45:22.047Z,93.75
2019-05-10T04:47:53.296Z,93.84
2019-05-10T04:50:24.469Z,93.44
2019-05-10T04:52:55.610Z,93.36
2019-05-10T04:55:26.832Z,93.59
2019-05-10T04:57:57.995Z,93.68
2019-05-10T05:00:29.331Z,93.55
2019-05-10T05:03:00.458Z,93.67
2019-05-10T05:05:31.694Z,93.27
2019-05-10T05:08:06.279Z,93.25
2019-05-10T05:10:36.821Z,93.45
2019-05-10T05:13:08.214Z,93.66
2019-05-10T05:15:39.924Z,93.59
2019-05-10T05:18:11.407Z,93.96
2019-05-10T05:20:43.131Z,94.35
2019-05-10T05:23:14.297Z,94.27
2019-05-10T05:25:45.806Z,93.52
2019-05-10T05:28:18.370Z,94.70
2019-05-10T05:30:50.821Z,94.70
2019-05-10T05:33:22.173Z,92.36
2019-05-10T05:35:53.300Z,87.50
2019-05-10T05:38:24.221Z,84.50
2019-05-10T05:40:55.232Z,82.52
2019-05-10T05:43:26.250Z,79.64
2019-05-10T05:45:57.087Z,78.34
2019-05-10T05:48:39.778Z,76.21
2019-05-10T05:51:01.014Z,78.40
2019-05-10T05:53:36.021Z,78.54
2019-05-10T05:56:12.531Z,80.20
2019-05-10T05:58:44.282Z,78.05
2019-05-10T06:01:10.868Z,80.26
2019-05-10T06:03:42.055Z,81.17
2019-05-10T06:06:21.785Z,78.19
2019-05-10T06:08:46.253Z,77.26
2019-05-10T06:11:17.372Z,76.72
2019-05-10T06:13:48.631Z,78.27
2019-05-10T06:16:22.242Z,79.25
2019-05-10T06:18:52.847Z,80.02
2019-05-10T06:21:26.562Z,80.33
2019-05-10T06:23:59.413Z,80.58
2019-05-10T06:26:29.642Z,80.96
2019-05-10T06:29:04.305Z,81.38
2019-05-10T06:31:33.952Z,80.62
2019-05-10T06:34:05.249Z,79.33
2019-05-10T06:36:36.507Z,78.31
2019-05-10T06:39:08.474Z,77.50
2019-05-10T06:41:39.766Z,77.34
2019-05-10T06:44:11.058Z,78.29
2019-05-10T06:46:42.239Z,79.54
2019-05-10T06:49:13.165Z,79.99
2019-05-10T06:51:49.102Z,79.87
2019-05-10T06:54:17.107Z,79.35
2019-05-10T06:56:48.200Z,80.18
2019-05-10T06:59:24.272Z,80.53
2019-05-10T07:01:52.275Z,79.68
2019-05-10T07:04:23.481Z,80.85
2019-05-10T07:06:54.552Z,82.08
2019-05-10T07:09:25.808Z,82.33
2019-05-10T07:11:57.166Z,81.82
2019-05-10T07:14:28.495Z,81.27
2019-05-10T07:17:02.612Z,80.96
2019-05-10T07:19:34.852Z,77.88
2019-05-10T07:22:06.422Z,78.78
2019-05-10T07:24:37.721Z,77.75
2019-05-10T07:27:08.950Z,77.01
2019-05-10T07:29:43.405Z,76.92
2019-05-10T07:32:16.306Z,77.02
2019-05-10T07:34:48.157Z,76.53
2019-05-10T07:37:19.170Z,77.25
2019-05-10T07:39:50.499Z,75.97
2019-05-10T07:42:21.494Z,77.23
2019-05-10T07:44:52.556Z,77.12
2019-05-10T07:47:29.884Z,76.94
2019-05-10T07:49:56.811Z,76.11
2019-05-10T07:52:27.958Z,77.40
2019-05-10T07:54:59.095Z,75.89
2019-05-10T07:57:30.414Z,75.05
2019-05-10T08:00:03.607Z,75.28
2019-05-10T08:02:34.406Z,75.09
2019-05-10T08:05:10.774Z,73.82
2019-05-10T08:07:39.095Z,75.79
2019-05-10T08:10:10.487Z,76.59
2019-05-10T08:12:45.633Z,76.28
2019-05-10T08:15:15.188Z,75.05
2019-05-10T08:17:50.650Z,72.65
2019-05-10T08:20:30.680Z,72.15
2019-05-10T08:22:52.679Z,70.40
2019-05-10T08:25:29.194Z,70.83
2019-05-10T08:27:56.654Z,68.91
2019-05-10T08:30:52.229Z,67.85
2019-05-10T08:33:17.715Z,67.94
2019-05-10T08:35:52.525Z,69.94
2019-05-10T08:38:21.991Z,68.10
2019-05-10T08:40:53.082Z,66.77
2019-05-10T08:43:24.547Z,64.68
2019-05-10T08:45:58.022Z,67.03
2019-05-10T08:48:29.062Z,67.03
2019-05-10T08:51:04.037Z,66.70
2019-05-10T08:53:33.041Z,64.78
2019-05-10T08:56:07.577Z,65.95
2019-05-10T08:58:37.469Z,64.42
2019-05-10T09:01:19.026Z,63.56
2019-05-10T09:03:47.208Z,61.17
2019-05-10T09:06:16.955Z,59.66
2019-05-10T09:08:52.938Z,61.29
2019-05-10T09:11:23.136Z,59.83
2019-05-10T09:13:57.605Z,59.74
2019-05-10T09:16:29.120Z,59.74
2019-05-10T09:19:02.408Z,60.64
2019-05-10T09:21:32.998Z,57.62
2019-05-10T09:24:06.569Z,59.07
2019-05-10T09:26:37.282Z,58.04
2019-05-10T09:29:08.548Z,57.45
2019-05-10T09:31:44.903Z,53.51
2019-05-10T09:34:12.341Z,54.99
2019-05-10T09:36:46.873Z,56.95
2019-05-10T09:39:21.465Z,59.09
2019-05-10T09:41:49.275Z,59.22
2019-05-10T09:44:22.771Z,59.52
2019-05-10T09:46:53.361Z,58.04
2019-05-10T09:49:24.527Z,58.91
2019-05-10T09:51:55.773Z,58.32
2019-05-10T09:54:29.605Z,59.70
2019-05-10T09:56:59.543Z,59.30
2019-05-10T09:59:30.450Z,58.43
2019-05-10T10:02:05.081Z,58.87
2019-05-10T10:04:34.371Z,61.00
2019-05-10T10:07:05.178Z,61.10
2019-05-10T10:09:42.398Z,61.65
2019-05-10T10:12:08.737Z,60.97
2019-05-10T10:14:43.243Z,59.63
2019-05-10T10:17:12.590Z,59.69
2019-05-10T10:19:43.431Z,60.57
2019-05-10T10:22:14.697Z,57.43
2019-05-10T10:24:48.905Z,57.53
2019-05-10T10:27:18.760Z,58.08
2019-05-10T10:29:49.797Z,58.55
2019-05-10T10:32:24.649Z,60.23
2019-05-10T10:34:57.613Z,60.23
2019-05-10T10:37:31.210Z,58.01
2019-05-10T10:40:05.352Z,59.79
2019-05-10T10:42:34.588Z,60.38
2019-05-10T10:45:07.370Z,61.40
2019-05-10T10:47:38.678Z,61.49
2019-05-10T10:50:13.464Z,58.40
2019-05-10T10:52:43.757Z,58.62
2019-05-10T10:55:14.856Z,58.62
2019-05-10T10:57:48.030Z,58.08
2019-05-10T11:00:24.317Z,58.86
2019-05-10T11:02:55.273Z,57.80
2019-05-10T11:05:26.356Z,58.59
2019-05-10T11:07:57.347Z,57.58
2019-05-10T11:10:32.131Z,57.79
2019-05-10T11:13:11.871Z,59.69
2019-05-10T11:15:36.620Z,61.99
2019-05-10T11:18:07.666Z,62.95
2019-05-10T11:20:41.894Z,64.28
2019-05-10T11:23:11.541Z,62.97
2019-05-10T11:25:50.412Z,61.09
2019-05-10T11:28:16.374Z,61.09
2019-05-10T11:30:50.973Z,58.61
2019-05-10T11:33:29.088Z,57.95
2019-05-10T11:35:57.622Z,58.85
2019-05-10T11:38:27.704Z,58.59
2019-05-10T11:40:58.527Z,58.12
2019-05-10T11:43:31.193Z,58.99
2019-05-10T11:46:01.927Z,59.02
2019-05-10T11:48:37.263Z,57.41
2019-05-10T11:51:11.270Z,57.49
2019-05-10T11:53:41.203Z,57.98
2019-05-10T11:58:50.448Z,58.41
2019-05-10T11:59:03.906Z,58.41
2019-05-10T12:01:19.431Z,56.59
2019-05-10T12:03:49.853Z,57.38
2019-05-10T12:06:22.146Z,56.37
2019-05-10T12:11:33.218Z,54.89
2019-05-10T12:14:02.140Z,54.76
2019-05-10T12:16:33.410Z,54.45
2019-05-10T12:19:15.645Z,54.27
2019-05-10T12:21:37.385Z,56.18
2019-05-10T12:24:26.063Z,56.19
2019-05-10T12:26:50.396Z,54.17
2019-05-10T12:27:12.851Z,55.63
2019-05-10T12:29:17.230Z,55.97
2019-05-10T12:31:47.505Z,55.86
2019-05-10T12:34:20.715Z,55.68
2019-05-10T12:36:52.141Z,55.68
2019-05-10T12:39:23.077Z,55.95
2019-05-10T12:41:54.006Z,55.62
2019-05-10T12:44:24.945Z,56.17
2019-05-10T12:46:55.749Z,54.59
2019-05-10T12:49:26.868Z,55.27
2019-05-10T12:51:57.834Z,53.33
2019-05-10T12:54:29.006Z,53.62
2019-05-10T12:57:00.044Z,52.24
2019-05-10T12:59:34.889Z,53.94
2019-05-10T13:02:09.919Z,54.96
2019-05-10T13:04:40.591Z,54.28
2019-05-10T13:07:09.333Z,56.27
2019-05-10T13:09:41.116Z,56.50
2019-05-10T13:12:12.192Z,56.61
2019-05-10T13:14:46.501Z,58.04
2019-05-10T13:17:17.141Z,57.24
2019-05-10T13:19:52.818Z,57.24
2019-05-10T13:22:21.165Z,57.35
2019-05-10T13:24:52.497Z,58.11
2019-05-10T13:27:23.677Z,56.88
2019-05-10T13:29:54.571Z,57.00
2019-05-10T13:32:25.337Z,53.96
2019-05-10T13:34:56.472Z,54.09
2019-05-10T13:37:27.518Z,52.51
2019-05-10T13:40:05.081Z,53.39
2019-05-10T13:42:36.472Z,53.92
2019-05-10T13:45:04.838Z,54.96
2019-05-10T13:47:35.899Z,56.18
2019-05-10T13:50:07.152Z,54.23
2019-05-10T13:52:40.982Z,55.43
2019-05-10T13:55:11.254Z,53.31
2019-05-10T13:57:42.158Z,53.30
2019-05-10T14:00:13.647Z,55.52
2019-05-10T14:02:44.707Z,54.47
2019-05-10T14:05:17.706Z,55.14
2019-05-10T14:07:52.308Z,54.90
2019-05-10T14:10:23.218Z,55.10
2019-05-10T14:12:56.205Z,54.27
2019-05-10T14:15:27.370Z,53.70
2019-05-10T14:17:58.378Z,54.75
2019-05-10T14:20:29.324Z,54.85
2019-05-10T14:23:00.237Z,55.06
2019-05-10T14:25:36.112Z,55.21
2019-05-10T14:28:09.806Z,52.80
2019-05-10T14:30:37.074Z,52.80
2019-05-10T14:33:13.976Z,54.30
2019-05-10T14:35:41.187Z,55.81
2019-05-10T14:38:13.080Z,55.81
2019-05-10T14:40:44.421Z,53.61
2019-05-10T14:43:15.556Z,53.28
2019-05-10T14:45:46.464Z,54.00
2019-05-10T14:48:27.656Z,53.42
2019-05-10T14:50:50.363Z,53.24
2019-05-10T14:53:25.568Z,52.83
2019-05-10T14:55:54.201Z,53.54
2019-05-10T14:58:25.377Z,53.93
2019-05-10T15:00:56.270Z,54.37
2019-05-10T15:03:27.057Z,53.81
2019-05-10T15:06:01.594Z,52.60
2019-05-10T15:08:30.583Z,52.37
2019-05-10T15:11:01.851Z,53.31
2019-05-10T15:13:35.245Z,52.74
2019-05-10T15:16:09.638Z,53.10
2019-05-10T15:18:38.051Z,52.77
2019-05-10T15:21:09.230Z,53.25
2019-05-10T15:23:40.303Z,53.16
2019-05-10T15:26:12.224Z,53.15
2019-05-10T15:28:43.421Z,53.15
2019-05-10T15:31:14.540Z,53.28
2019-05-10T15:33:45.627Z,53.17
2019-05-10T15:36:16.659Z,52.46
2019-05-10T15:38:51.949Z,52.55
2019-05-10T15:41:22.500Z,52.55
2019-05-10T15:43:53.848Z,52.50
2019-05-10T15:46:35.354Z,52.80
2019-05-10T15:48:58.802Z,51.66
2019-05-10T15:51:36.360Z,52.02
2019-05-10T15:54:04.922Z,52.38
2019-05-10T15:56:40.738Z,51.50
2019-05-10T15:59:12.919Z,51.50
2019-05-10T16:01:45.398Z,50.72
2019-05-10T16:04:14.945Z,50.21
2019-05-10T16:06:47.082Z,50.92
2019-05-10T16:09:19.348Z,51.35
2019-05-10T16:11:55.569Z,51.47
2019-05-10T16:14:23.429Z,51.22
2019-05-10T16:16:55.429Z,53.06
2019-05-10T16:19:26.639Z,53.33
2019-05-10T16:21:58.259Z,52.25
2019-05-10T16:24:29.132Z,53.26
2019-05-10T16:27:01.840Z,53.36
2019-05-10T16:29:40.180Z,53.28
2019-05-10T16:32:06.029Z,53.71
2019-05-10T16:34:36.834Z,54.17
2019-05-10T16:37:07.841Z,53.80
2019-05-10T16:39:38.888Z,53.38
2019-05-10T16:42:09.999Z,53.58
2019-05-10T16:44:41.126Z,53.89
2019-05-10T16:47:12.138Z,54.28
2019-05-10T16:49:47.619Z,55.09
2019-05-10T16:52:19.535Z,54.89
2019-05-10T16:54:48.561Z,55.65
2019-05-10T16:57:19.900Z,55.89
2019-05-10T16:59:50.991Z,56.88
2019-05-10T17:02:22.064Z,57.38
2019-05-10T17:04:53.067Z,58.07
2019-05-10T17:07:24.352Z,58.25
2019-05-10T17:09:56.324Z,58.43
2019-05-10T17:12:28.982Z,59.34
2019-05-10T17:15:02.783Z,59.34
2019-05-10T17:17:37.046Z,59.68
2019-05-10T17:20:07.347Z,60.09
2019-05-10T17:22:38.218Z,60.21
2019-05-10T17:25:10.306Z,60.16
2019-05-10T17:27:41.260Z,60.25
2019-05-10T17:30:12.362Z,60.11
2019-05-10T17:32:43.231Z,60.49
2019-05-10T17:35:14.586Z,60.50
2019-05-10T17:37:45.429Z,59.92
2019-05-10T17:40:16.945Z,60.28
2019-05-10T17:42:51.241Z,60.42
2019-05-10T17:45:20.878Z,60.72
2019-05-10T17:47:51.717Z,60.79
2019-05-10T17:50:22.631Z,61.04
2019-05-10T17:52:53.848Z,61.25
2019-05-10T17:55:25.558Z,61.25
2019-05-10T17:57:56.728Z,62.31
2019-05-10T18:00:27.608Z,62.55
2019-05-10T18:02:58.717Z,62.55
2019-05-10T18:05:29.955Z,63.00
2019-05-10T18:08:00.869Z,63.21
2019-05-10T18:10:32.222Z,63.21
2019-05-10T18:13:05.070Z,62.29
2019-05-10T18:15:35.848Z,61.97
2019-05-10T18:18:07.086Z,62.35
2019-05-10T18:20:42.007Z,62.67
2019-05-10T18:23:10.530Z,62.33
2019-05-10T18:25:41.645Z,63.10
2019-05-10T18:28:12.606Z,62.54
2019-05-10T18:30:43.645Z,62.33
2019-05-10T18:33:14.849Z,62.18
2019-05-10T18:35:52.713Z,61.99
2019-05-10T18:38:20.519Z,62.28
2019-05-10T18:40:51.515Z,62.61
2019-05-10T18:43:22.579Z,62.39
2019-05-10T18:45:53.387Z,61.99
2019-05-10T18:48:24.356Z,61.06
2019-05-10T18:50:55.328Z,61.85
2019-05-10T18:53:26.161Z,61.19
2019-05-10T18:55:57.064Z,61.37
2019-05-10T18:58:29.021Z,61.48
2019-05-10T19:01:02.395Z,61.48
2019-05-10T19:03:35.371Z,61.61
2019-05-10T19:06:11.002Z,61.37
2019-05-10T19:08:39.073Z,61.46
2019-05-10T19:11:09.936Z,61.61
2019-05-10T19:13:48.200Z,61.74
2019-05-10T19:16:13.340Z,61.40
2019-05-10T19:18:44.175Z,61.56
2019-05-10T19:21:15.152Z,62.07
2019-05-10T19:23:45.957Z,62.22
2019-05-10T19:26:17.674Z,61.78
2019-05-10T19:28:48.567Z,62.87
2019-05-10T19:31:19.467Z,62.41
2019-05-10T19:33:51.254Z,62.35
2019-05-10T19:36:22.159Z,62.62
2019-05-10T19:38:52.952Z,62.44
2019-05-10T19:41:25.698Z,62.64
2019-05-10T19:44:02.669Z,62.96
2019-05-10T19:46:29.979Z,62.51
2019-05-10T19:49:02.010Z,61.80
2019-05-10T19:51:33.225Z,61.64
2019-05-10T19:54:04.261Z,61.97
2019-05-10T19:56:37.072Z,61.74
2019-05-10T19:59:11.662Z,62.09
2019-05-10T20:01:40.502Z,62.14
2019-05-10T20:04:11.899Z,61.58
2019-05-10T20:06:43.081Z,61.69
2019-05-10T20:09:14.171Z,61.83
2019-05-10T20:11:45.158Z,61.55
2019-05-10T20:14:16.244Z,61.78
2019-05-10T20:16:52.608Z,62.07
2019-05-10T20:19:20.840Z,62.17
2019-05-10T20:21:51.919Z,62.12
2019-05-10T20:24:23.065Z,62.33
2019-05-10T20:26:54.097Z,62.24
2019-05-10T20:29:25.004Z,62.29
2019-05-10T20:31:56.040Z,62.38
2019-05-10T20:34:26.850Z,62.23
2019-05-10T20:36:57.881Z,61.83
2019-05-10T20:39:29.142Z,61.75
2019-05-10T20:42:00.203Z,62.45
2019-05-10T20:44:31.167Z,62.13
2019-05-10T20:47:02.384Z,62.21
2019-05-10T20:49:33.327Z,62.68
2019-05-10T20:52:04.212Z,62.56
2019-05-10T20:54:35.332Z,62.71
2019-05-10T20:57:06.619Z,62.85
2019-05-10T20:59:37.525Z,63.22
2019-05-10T21:02:08.679Z,63.12
2019-05-10T21:04:39.807Z,63.62
2019-05-10T21:07:10.921Z,63.38
2019-05-10T21:09:42.032Z,63.29
2019-05-10T21:12:12.968Z,63.38
2019-05-10T21:14:44.576Z,63.10
2019-05-10T21:17:15.444Z,62.83
2019-05-10T21:19:46.452Z,62.89
2019-05-10T21:22:17.398Z,62.38
2019-05-10T21:24:48.177Z,61.67
2019-05-10T21:27:19.183Z,62.18
2019-05-10T21:29:50.024Z,61.45
2019-05-10T21:32:20.832Z,61.59
2019-05-10T21:34:52.740Z,61.32
2019-05-10T21:37:23.855Z,62.27
2019-05-10T21:39:54.723Z,62.37
2019-05-10T21:42:25.788Z,61.75
2019-05-10T21:44:56.632Z,62.12
2019-05-10T21:47:27.622Z,62.77
2019-05-10T21:49:58.608Z,63.35
2019-05-10T21:52:29.678Z,63.21
2019-05-10T21:55:00.521Z,62.49
2019-05-10T21:57:31.378Z,62.17
2019-05-10T22:00:02.214Z,62.26
2019-05-10T22:02:34.804Z,62.12
2019-05-10T22:05:06.803Z,62.15
2019-05-10T22:07:38.039Z,62.14
2019-05-10T22:10:09.239Z,61.85
2019-05-10T22:12:40.163Z,61.86
2019-05-10T22:15:11.198Z,62.07
2019-05-10T22:17:42.473Z,62.24
2019-05-10T22:20:13.535Z,62.31
2019-05-10T22:22:45.624Z,62.14
2019-05-10T22:25:16.850Z,61.80
2019-05-10T22:27:48.012Z,62.02
2019-05-10T22:30:19.220Z,62.69
2019-05-10T22:32:50.373Z,63.34
2019-05-10T22:35:21.423Z,62.57
2019-05-10T22:37:52.593Z,62.58
2019-05-10T22:40:23.469Z,63.64
2019-05-10T22:42:54.217Z,63.80
2019-05-10T22:45:25.287Z,63.43
2019-05-10T22:47:56.573Z,63.38
2019-05-10T22:50:27.785Z,63.88
2019-05-10T22:52:59.035Z,65.11
2019-05-10T22:55:30.152Z,64.97
2019-05-10T22:58:02.291Z,65.05
2019-05-10T23:00:33.186Z,65.90
2019-05-10T23:03:04.407Z,65.21
2019-05-10T23:05:35.451Z,65.33
2019-05-10T23:08:06.834Z,65.56
2019-05-10T23:10:38.042Z,64.50
2019-05-10T23:13:09.183Z,64.02
2019-05-10T23:15:41.085Z,64.12
2019-05-10T23:18:11.976Z,64.59
2019-05-10T23:20:43.242Z,64.30
2019-05-10T23:23:14.314Z,64.96
2019-05-10T23:25:45.607Z,65.12
2019-05-10T23:28:16.739Z,64.54
2019-05-10T23:30:47.944Z,65.07
2019-05-10T23:33:19.617Z,65.19
2019-05-10T23:35:51.169Z,65.32
2019-05-10T23:38:22.559Z,64.99
2019-05-10T23:40:54.080Z,64.98
2019-05-10T23:43:25.628Z,64.73
2019-05-10T23:45:57.081Z,64.75
2019-05-10T23:48:28.803Z,64.65
2019-05-10T23:51:00.063Z,64.26
2019-05-10T23:53:31.366Z,64.26
2019-05-10T23:56:03.779Z,64.30
2019-05-10T23:58:35.223Z,64.28
